Time;durP1;ratioP1;P1;durP2;ratioP2;P2;SDS_P1;SDS_P2;PMS_P1;PMS_P2;Temp;Humidity;BMP_temperature;BMP_pressure;BME280_temperature;BME280_humidity;BME280_pressure;Samples;Min_cycle;Max_cycle;Signal;HPM_P1;HPM_P2
2022/11/29 00:04:30;;;;;;;0.00;0.00;;;;;;;3.15;100.00;101440.88;10439668;28;20068;-82
2022/11/29 00:09:30;;;;;;;0.00;0.00;;;;;;;3.15;100.00;101444.34;10457242;28;20068;-81
2022/11/29 00:14:30;;;;;;;0.00;0.00;;;;;;;3.20;100.00;101456.34;10454950;28;20119;-83
2022/11/29 00:19:32;;;;;;;0.00;0.00;;;;;;;3.14;100.00;101441.78;10456393;28;20043;-81
2022/11/29 00:24:33;;;;;;;0.00;0.00;;;;;;;3.16;100.00;101443.38;10437724;28;20717;-83
2022/11/29 00:29:33;;;;;;;0.00;0.00;;;;;;;3.28;100.00;101464.63;10439455;28;20060;-82
2022/11/29 00:34:34;;;;;;;0.00;0.00;;;;;;;3.24;100.00;101452.63;10438261;28;20043;-82
2022/11/29 00:39:34;;;;;;;0.00;0.00;;;;;;;3.21;100.00;101444.91;10438535;28;20359;-82
2022/11/29 00:44:35;;;;;;;0.00;0.00;;;;;;;3.15;100.00;101436.44;10455139;28;20125;-82
2022/11/29 00:49:35;;;;;;;0.00;0.00;;;;;;;3.13;100.00;101427.78;10455248;28;20272;-82
2022/11/29 00:54:35;;;;;;;0.00;0.00;;;;;;;3.16;100.00;101437.28;10438638;28;20039;-82
2022/11/29 00:59:36;;;;;;;0.00;0.00;;;;;;;3.23;100.00;101443.00;10455097;28;20068;-82
2022/11/29 01:04:36;;;;;;;0.00;0.00;;;;;;;3.18;100.00;101438.03;10455303;28;20307;-82
2022/11/29 01:09:36;;;;;;;0.00;0.00;;;;;;;3.22;100.00;101446.59;10456395;28;20037;-82
2022/11/29 01:14:37;;;;;;;0.00;0.00;;;;;;;3.17;100.00;101445.09;10438476;28;20029;-82
2022/11/29 01:19:37;;;;;;;0.00;0.00;;;;;;;3.14;100.00;101431.25;10455763;28;20037;-81
2022/11/29 01:24:38;;;;;;;0.00;0.00;;;;;;;3.14;100.00;101440.03;10456142;28;20318;-82
2022/11/29 01:29:38;;;;;;;0.00;0.00;;;;;;;3.14;100.00;101440.03;10437537;28;20037;-81
2022/11/29 01:34:39;;;;;;;0.00;0.00;;;;;;;3.27;100.00;101470.84;10441429;28;20044;-81
2022/11/29 01:39:39;;;;;;;0.00;0.00;;;;;;;3.12;100.00;101456.84;10445103;28;20051;-83
2022/11/29 01:44:48;;;;;;;0.00;0.00;;;;;;;3.27;100.00;101478.75;10444462;28;20021;-82
2022/11/29 01:49:49;;;;;;;0.00;0.00;;;;;;;3.25;100.00;101478.00;10443601;28;20274;-81
2022/11/29 01:54:54;;;;;;;0.00;0.00;;;;;;;3.26;100.00;101477.03;10422280;28;20564;-82
2022/11/29 02:00:00;;;;;;;0.00;0.00;;;;;;;3.24;100.00;101474.50;10440878;28;20496;-83
2022/11/29 02:05:03;;;;;;;0.00;0.00;;;;;;;3.23;100.00;101478.09;10424681;28;20036;-82
2022/11/29 02:10:05;;;;;;;0.00;0.00;;;;;;;3.22;100.00;101476.38;10460670;28;20040;-83
2022/11/29 02:15:17;;;;;;;0.00;0.00;;;;;;;3.22;100.00;101488.72;10442642;28;20504;-82
2022/11/29 02:20:35;;;;;;;0.00;0.00;;;;;;;3.21;100.00;101487.88;10430427;28;20033;-82
2022/11/29 02:25:41;;;;;;;0.00;0.00;;;;;;;3.21;100.00;101494.94;10402178;28;20132;-83
2022/11/29 02:31:00;;;;;;;0.00;0.00;;;;;;;3.20;100.00;101493.22;10401349;28;20044;-83
2022/11/29 02:36:31;;;;;;;0.00;0.00;;;;;;;3.20;100.00;101501.13;10417532;28;20176;-83
2022/11/29 02:41:56;;;;;;;0.00;0.00;;;;;;;3.16;100.00;101490.78;10417893;28;20510;-82
2022/11/29 02:47:06;;;;;;;;;;;;;;;3.17;100.00;101495.13;10418222;28;20033;-83
2022/11/29 02:52:14;;;;;;;0.00;0.00;;;;;;;3.16;100.00;101503.94;10419168;28;19909;-82
2022/11/29 02:57:29;;;;;;;0.00;0.00;;;;;;;3.14;100.00;101508.47;10400657;28;20124;-82
2022/11/29 03:02:34;;;;;;;;;;;;;;;3.13;100.00;101514.66;10418553;28;20113;-82
2022/11/29 03:07:44;;;;;;;0.00;0.00;;;;;;;3.11;100.00;101511.28;10417222;28;19909;-83
2022/11/29 03:12:48;;;;;;;0.00;0.00;;;;;;;3.09;100.00;101526.31;10399366;28;20088;-80
2022/11/29 03:17:51;;;;;;;0.00;0.00;;;;;;;3.08;100.00;101524.63;10418210;28;20033;-82
2022/11/29 03:23:26;;;;;;;0.00;0.00;;;;;;;3.07;100.00;101525.56;10399845;28;20072;-82
2022/11/29 03:28:35;;;;;;;0.00;0.00;;;;;;;3.07;100.00;101532.63;10399804;28;20067;-81
2022/11/29 03:33:40;;;;;;;0.00;0.00;;;;;;;3.05;100.00;101539.75;10425697;22;20045;-78
2022/11/29 03:38:44;;;;;;;0.00;0.00;;;;;;;3.03;100.00;101533.75;10437526;28;20076;-78
2022/11/29 03:43:59;;;;;;;0.00;0.00;;;;;;;3.03;100.00;101536.41;10441776;28;20036;-79
2022/11/29 03:49:19;;;;;;;0.00;0.00;;;;;;;3.02;100.00;101538.16;10451792;28;20021;-77
2022/11/29 03:54:48;;;;;;;0.00;0.00;;;;;;;3.01;100.00;101538.25;10442210;28;20017;-78
2022/11/29 04:00:06;;;;;;;0.00;0.00;;;;;;;2.99;100.00;101543.59;10460636;28;20411;-77
2022/11/29 04:05:40;;;;;;;0.00;0.00;;;;;;;2.99;100.00;101545.41;10456291;28;20034;-78
2022/11/29 04:11:18;;;;;;;0.00;0.00;;;;;;;2.98;100.00;101555.09;10442220;28;20041;-77
2022/11/29 04:16:37;;;;;;;0.00;0.00;;;;;;;2.99;100.00;101562.03;10481561;28;20028;-78
2022/11/29 04:22:12;;;;;;;0.00;0.00;;;;;;;2.96;100.00;101567.47;10476331;28;20033;-78
2022/11/29 04:27:29;;;;;;;0.00;0.00;;;;;;;2.97;100.00;101569.19;10441456;28;20033;-78
2022/11/29 04:32:39;;;;;;;0.00;0.00;;;;;;;2.98;100.00;101576.13;10458771;28;20361;-78
2022/11/29 04:38:00;;;;;;;0.00;0.00;;;;;;;2.98;100.00;101577.94;10455906;28;20044;-78
2022/11/29 04:43:12;;;;;;;0.00;0.00;;;;;;;2.98;100.00;101599.81;10475845;28;20082;-77
2022/11/29 04:48:31;;;;;;;0.00;0.00;;;;;;;2.98;100.00;101581.41;10475237;28;20290;-78
2022/11/29 04:53:46;;;;;;;0.00;0.00;;;;;;;2.98;100.00;101591.09;10474040;28;20051;-77
2022/11/29 04:59:06;;;;;;;;;;;;;;;2.98;100.00;101597.19;10469618;28;20059;-78
2022/11/29 05:04:19;;;;;;;0.00;0.00;;;;;;;2.98;100.00;101598.97;10469944;28;20446;-77
2022/11/29 05:09:41;;;;;;;0.00;0.00;;;;;;;2.98;100.00;101606.88;10441156;28;20511;-78
2022/11/29 05:14:56;;;;;;;0.00;0.00;;;;;;;2.95;100.00;101613.16;10438929;28;20059;-77
2022/11/29 05:20:13;;;;;;;0.00;0.00;;;;;;;2.95;100.00;101611.38;10473815;28;20040;-78
2022/11/29 05:25:16;;;;;;;0.00;0.00;;;;;;;2.98;100.00;101620.03;10472798;28;20100;-77
2022/11/29 05:30:19;;;;;;;0.00;0.00;;;;;;;2.97;100.00;101616.56;10438331;28;20038;-78
2022/11/29 05:35:46;;;;;;;0.00;0.00;;;;;;;2.96;100.00;101617.47;10446671;28;20085;-77
2022/11/29 05:41:16;;;;;;;0.00;0.00;;;;;;;2.96;100.00;101609.59;10392057;28;20045;-78
2022/11/29 05:46:28;;;;;;;0.00;0.00;;;;;;;2.96;100.00;101622.75;10455562;28;20101;-77
2022/11/29 05:51:31;;;;;;;0.00;0.00;;;;;;;2.95;100.00;101627.16;10465382;28;20061;-77
2022/11/29 05:56:50;;;;;;;0.00;0.00;;;;;;;2.96;100.00;101633.28;10456880;28;20491;-77
2022/11/29 06:02:26;;;;;;;0.00;0.00;;;;;;;2.96;100.00;101638.53;10419069;28;20076;-78
2022/11/29 06:07:53;;;;;;;0.00;0.00;;;;;;;2.98;100.00;101649.00;10424886;28;20048;-77
2022/11/29 06:13:14;;;;;;;0.00;0.00;;;;;;;2.95;100.00;101650.84;10419977;28;20033;-77
2022/11/29 06:18:32;;;;;;;0.00;0.00;;;;;;;2.97;100.00;101652.53;10400447;28;20152;-77
2022/11/29 06:23:56;;;;;;;0.00;0.00;;;;;;;2.99;100.00;101661.19;10421221;28;20049;-77
2022/11/29 06:29:11;;;;;;;0.00;0.00;;;;;;;2.99;100.00;101675.19;10426275;28;20373;-77
2022/11/29 06:34:26;;;;;;;0.00;0.00;;;;;;;2.98;100.00;101673.50;10435582;28;20040;-77
2022/11/29 06:39:26;;;;;;;0.00;0.00;;;;;;;3.00;100.00;101684.81;10400559;28;20048;-77
2022/11/29 06:44:27;;;;;;;0.00;0.00;;;;;;;3.00;100.00;101692.72;10417286;28;20026;-77
2022/11/29 06:49:31;;;;;;;0.00;0.00;;;;;;;3.00;100.00;101683.97;10429698;28;20484;-77
2022/11/29 06:54:47;;;;;;;0.00;0.00;;;;;;;2.99;100.00;101690.16;10419922;28;20038;-77
2022/11/29 07:00:16;;;;;;;0.00;0.00;;;;;;;3.00;100.00;101705.88;10395758;28;20152;-77
2022/11/29 07:05:31;;;;;;;0.00;0.00;;;;;;;2.99;100.00;101708.56;10423827;28;20033;-77
2022/11/29 07:10:36;;;;;;;0.00;0.00;;;;;;;3.00;100.00;101715.56;10419988;28;20045;-77
2022/11/29 07:15:40;;;;;;;0.00;0.00;;;;;;;3.00;100.00;101723.44;10414224;28;20495;-77
2022/11/29 07:21:05;;;;;;;0.00;0.00;;;;;;;2.99;100.00;101725.22;10413338;28;20397;-77
2022/11/29 07:26:20;;;;;;;0.00;0.00;;;;;;;2.99;100.00;101729.63;10415875;28;20025;-77
2022/11/29 07:31:37;;;;;;;;;;;;;;;2.99;100.00;101729.63;10415312;28;20021;-78
2022/11/29 07:36:56;;;;;;;0.00;0.00;;;;;;;2.97;100.00;101732.38;10421698;28;20331;-77
2022/11/29 07:42:12;;;;;;;0.00;0.00;;;;;;;2.98;100.00;101739.31;10402784;28;20032;-77
2022/11/29 07:47:12;;;;;;;0.00;0.00;;;;;;;2.99;100.00;101742.78;10396099;28;20083;-77
2022/11/29 07:52:15;;;;;;;0.00;0.00;;;;;;;2.97;100.00;101742.88;10413989;28;20029;-77
2022/11/29 07:57:15;;;;;;;0.00;0.00;;;;;;;2.97;100.00;101757.81;10414545;28;20104;-77
2022/11/29 08:02:28;;;;;;;0.00;0.00;;;;;;;2.98;100.00;101757.72;10416548;28;20108;-77
2022/11/29 08:07:29;;;;;;;0.00;0.00;;;;;;;2.98;100.00;101763.00;10404022;28;20042;-77
2022/11/29 08:12:29;;;;;;;0.00;0.00;;;;;;;2.97;100.00;101765.69;10420977;28;20030;-77
2022/11/29 08:17:30;;;;;;;0.00;0.00;;;;;;;2.98;100.00;101775.31;10418413;28;20114;-77
2022/11/29 08:22:30;;;;;;;0.00;0.00;;;;;;;2.99;100.00;101772.59;10431436;28;20029;-77
2022/11/29 08:27:31;;;;;;;0.00;0.00;;;;;;;2.99;100.00;101771.75;10432886;28;20049;-77
2022/11/29 08:32:33;;;;;;;0.00;0.00;;;;;;;3.00;100.00;101773.47;10425610;28;20331;-77
2022/11/29 08:37:33;;;;;;;0.00;0.00;;;;;;;3.01;100.00;101768.09;10420055;28;20392;-77
2022/11/29 08:42:33;;;;;;;0.00;0.00;;;;;;;3.01;100.00;101775.97;10410560;28;20029;-77
2022/11/29 08:47:34;;;;;;;0.00;0.00;;;;;;;3.00;100.00;101771.66;10417793;28;20091;-77
2022/11/29 08:58:05;;;;;;;0.00;0.00;;;;;;;3.08;100.00;101774.69;10407287;28;20026;-77
2022/11/29 09:08:25;;;;;;;0.00;0.00;;;;;;;3.15;100.00;101776.03;10423411;28;20041;-78
2022/11/29 09:13:25;;;;;;;0.00;0.00;;;;;;;3.22;100.00;101780.97;10422054;28;20026;-78
2022/11/29 09:18:27;;;;;;;0.00;0.00;;;;;;;3.27;100.00;101790.28;10430450;28;20018;-78
2022/11/29 09:23:27;;;;;;;0.00;0.00;;;;;;;3.30;100.00;101794.53;10422045;28;20093;-78
2022/11/29 09:28:28;;;;;;;0.00;0.00;;;;;;;3.31;100.00;101801.50;10425577;28;20076;-78
2022/11/29 09:33:29;;;;;;;0.00;0.00;;;;;;;3.24;100.00;101794.91;10464738;22;20147;-80
2022/11/29 09:38:29;;;;;;;0.00;0.00;;;;;;;3.28;100.00;101799.88;10397988;28;20034;-78
2022/11/29 09:44:01;;;;;;;0.00;0.00;;;;;;;3.18;100.00;101789.03;10415828;28;20367;-80
2022/11/29 09:49:13;;;;;;;0.00;0.00;;;;;;;3.40;100.00;101824.66;10416570;28;20053;-80
2022/11/29 09:54:29;;;;;;;0.00;0.00;;;;;;;3.31;100.00;101804.13;10399896;28;20060;-80
2022/11/29 09:59:36;;;;;;;0.00;0.00;;;;;;;3.45;100.00;101827.88;10441443;28;20037;-80
2022/11/29 10:04:43;;;;;;;0.00;0.00;;;;;;;3.43;100.00;101821.00;10436719;28;20025;-79
2022/11/29 10:09:49;;;;;;;0.10;0.10;;;;;;;3.51;100.00;101837.22;10448648;28;20485;-80
2022/11/29 10:15:01;;;;;;;0.00;0.00;;;;;;;3.52;100.00;101839.78;10430428;28;20485;-80
2022/11/29 10:20:12;;;;;;;0.00;0.00;;;;;;;3.53;100.00;101832.72;10410342;28;20087;-80
2022/11/29 10:25:21;;;;;;;0.00;0.00;;;;;;;3.51;100.00;101829.31;10434016;28;20040;-80
2022/11/29 10:30:22;;;;;;;0.00;0.00;;;;;;;3.54;100.00;101840.50;10432229;28;20041;-80
2022/11/29 10:35:23;;;;;;;0.00;0.00;;;;;;;3.58;100.00;101834.16;10427759;28;20052;-80
2022/11/29 10:40:31;;;;;;;0.00;0.00;;;;;;;3.65;100.00;101841.69;10400228;28;20033;-80
2022/11/29 10:45:49;;;;;;;0.00;0.00;;;;;;;3.69;100.00;101843.19;10419791;28;20030;-80
2022/11/29 10:50:51;;;;;;;0.00;0.00;;;;;;;3.71;100.00;101844.81;10428756;28;20116;-80
2022/11/29 10:55:52;;;;;;;0.00;0.00;;;;;;;3.76;100.00;101847.19;10422073;28;20018;-79
2022/11/29 11:00:54;;;;;;;0.00;0.00;;;;;;;3.81;100.00;101845.09;10457930;28;20037;-79
2022/11/29 11:06:03;;;;;;;0.00;0.00;;;;;;;3.80;100.00;101849.53;10409317;28;20057;-79
2022/11/29 11:11:06;;;;;;;0.00;0.00;;;;;;;3.73;100.00;101836.81;10425798;28;20028;-77
2022/11/29 11:16:22;;;;;;;0.00;0.00;;;;;;;3.76;100.00;101845.41;10415411;28;20133;-79
2022/11/29 11:21:26;;;;;;;0.00;0.00;;;;;;;3.75;100.00;101842.84;10456201;28;20128;-79
2022/11/29 11:26:41;;;;;;;0.00;0.00;;;;;;;3.78;100.00;101840.00;10432964;28;20032;-79
2022/11/29 11:31:41;;;;;;;0.00;0.00;;;;;;;3.77;100.00;101849.72;10441123;28;20029;-79
2022/11/29 11:36:42;;;;;;;0.00;0.00;;;;;;;3.79;100.00;101850.47;10432827;28;20120;-79
2022/11/29 11:47:05;;;;;;;0.00;0.00;;;;;;;3.78;100.00;101850.56;10434719;28;20029;-79
2022/11/29 11:52:06;;;;;;;0.00;0.00;;;;;;;3.75;100.00;101859.53;10428163;28;20119;-79
2022/11/29 11:57:16;;;;;;;0.00;0.00;;;;;;;3.73;100.00;101856.13;10416853;28;20106;-80
2022/11/29 12:02:43;;;;;;;0.00;0.00;;;;;;;3.70;100.00;101845.75;10414374;28;20029;-79
2022/11/29 12:07:52;;;;;;;0.00;0.00;;;;;;;3.71;100.00;101860.63;10415235;28;20036;-79
2022/11/29 12:12:56;;;;;;;0.00;0.00;;;;;;;3.72;100.00;101864.94;10422947;28;20412;-79
2022/11/29 12:17:59;;;;;;;0.00;0.00;;;;;;;3.68;100.00;101865.22;10438856;28;20037;-79
2022/11/29 12:23:11;;;;;;;0.00;0.00;;;;;;;3.66;100.00;101869.72;10422545;28;20033;-78
2022/11/29 12:28:14;;;;;;;0.00;0.00;;;;;;;3.64;100.00;101877.75;10418097;28;20097;-79
2022/11/29 12:33:35;;;;;;;0.00;0.00;;;;;;;3.62;100.00;101871.69;10423692;28;20503;-79
2022/11/29 12:38:58;;;;;;;0.00;0.00;;;;;;;3.63;100.00;101884.75;10399149;28;20037;-79
2022/11/29 12:44:38;;;;;;;0.00;0.00;;;;;;;3.65;100.00;101889.13;10418640;28;20079;-79
2022/11/29 12:50:06;;;;;;;0.00;0.00;;;;;;;3.66;100.00;101882.91;10454833;28;20031;-79
2022/11/29 12:55:28;;;;;;;0.00;0.00;;;;;;;3.67;100.00;101889.88;10425369;28;20121;-79
2022/11/29 13:00:37;;;;;;;0.00;0.00;;;;;;;3.67;100.00;101889.88;10414712;28;20032;-79
2022/11/29 13:05:50;;;;;;;0.00;0.00;;;;;;;3.69;100.00;101893.25;10421993;28;20033;-79
2022/11/29 13:11:10;;;;;;;0.00;0.00;;;;;;;3.72;100.00;101898.34;10448916;28;20530;-78
2022/11/29 13:16:29;;;;;;;0.00;0.00;;;;;;;3.73;100.00;101900.06;10413698;28;20064;-78
2022/11/29 13:21:53;;;;;;;0.00;0.00;;;;;;;3.71;100.00;101902.78;10433423;28;20029;-79
2022/11/29 13:26:54;;;;;;;0.10;0.10;;;;;;;3.72;100.00;101903.63;10442241;28;20416;-78
2022/11/29 13:31:56;;;;;;;0.00;0.00;;;;;;;3.71;100.00;101905.41;10421265;28;20506;-79
2022/11/29 13:37:25;;;;;;;0.00;0.00;;;;;;;3.68;100.00;101900.31;10427188;28;20026;-78
2022/11/29 13:42:44;;;;;;;0.00;0.00;;;;;;;3.71;100.00;101908.06;10420543;28;20033;-78
2022/11/29 13:47:53;;;;;;;0.00;0.00;;;;;;;3.68;100.00;101915.28;10422946;28;20113;-78
2022/11/29 13:53:03;;;;;;;0.00;0.00;;;;;;;3.69;100.00;101909.06;10450128;28;20500;-79
2022/11/29 13:58:29;;;;;;;0.00;0.00;;;;;;;3.68;100.00;101913.50;10401068;28;20112;-78
2022/11/29 14:03:42;;;;;;;0.00;0.00;;;;;;;3.66;100.00;101918.00;10409812;28;20424;-78
2022/11/29 14:09:04;;;;;;;0.00;0.00;;;;;;;3.69;100.00;101922.25;10419883;28;20033;-78
2022/11/29 14:14:09;;;;;;;0.05;0.05;;;;;;;3.66;100.00;101917.16;10436017;28;20033;-80
2022/11/29 14:19:09;;;;;;;0.00;0.00;;;;;;;3.67;100.00;101916.25;10440615;28;20033;-80
2022/11/29 14:24:34;;;;;;;0.00;0.00;;;;;;;3.66;100.00;101919.78;10430045;28;20044;-79
2022/11/29 14:29:52;;;;;;;0.00;0.00;;;;;;;3.65;100.00;101929.47;10445164;28;20034;-80
2022/11/29 14:35:00;;;;;;;0.00;0.00;;;;;;;3.62;100.00;101932.28;10434450;28;20086;-79
2022/11/29 14:40:14;;;;;;;0.00;0.00;;;;;;;3.63;100.00;101936.63;10432987;28;20025;-79
2022/11/29 14:45:25;;;;;;;0.00;0.00;;;;;;;3.60;100.00;101935.00;10428655;28;20034;-79
2022/11/29 14:50:39;;;;;;;0.00;0.00;;;;;;;3.58;100.00;101939.53;10431484;28;20052;-79
2022/11/29 14:55:41;;;;;;;0.00;0.00;;;;;;;3.56;100.00;101933.50;10418418;28;20140;-81
2022/11/29 15:00:48;;;;;;;0.00;0.00;;;;;;;3.55;100.00;101941.47;10421125;28;20091;-80
2022/11/29 15:06:06;;;;;;;0.00;0.00;;;;;;;3.53;100.00;101946.84;10421161;28;20064;-79
2022/11/29 15:11:17;;;;;;;0.00;0.00;;;;;;;3.52;100.00;101945.16;10421181;28;20034;-80
2022/11/29 15:16:17;;;;;;;0.00;0.00;;;;;;;3.50;100.00;101949.66;10434434;28;20033;-80
2022/11/29 15:21:32;;;;;;;0.00;0.00;;;;;;;3.49;100.00;101950.59;10411129;28;20033;-80
2022/11/29 15:26:32;;;;;;;0.00;0.00;;;;;;;3.47;100.00;101955.09;10444132;28;20557;-79
2022/11/29 15:31:34;;;;;;;0.00;0.00;;;;;;;3.47;100.00;101965.63;10462485;28;20029;-79
2022/11/29 15:36:42;;;;;;;0.00;0.00;;;;;;;3.46;100.00;101977.09;10433006;22;20479;-89
2022/11/29 15:41:42;;;;;;;0.00;0.00;;;;;;;3.44;100.00;101981.59;10385710;28;20037;-89
2022/11/29 15:46:42;;;;;;;0.00;0.00;;;;;;;3.45;100.00;101983.28;10387343;28;20125;-90
2022/11/29 15:51:46;;;;;;;0.00;0.00;;;;;;;3.44;100.00;101992.13;10363431;28;20029;-89
2022/11/29 15:56:53;;;;;;;0.00;0.00;;;;;;;3.45;100.00;101990.34;10362114;28;20380;-89
2022/11/29 16:01:57;;;;;;;0.00;0.00;;;;;;;3.47;100.00;102005.13;10362539;28;20160;-89
2022/11/29 16:06:57;;;;;;;0.00;0.00;;;;;;;3.37;100.00;101985.50;10357675;28;20029;-89
2022/11/29 16:12:00;;;;;;;0.00;0.00;;;;;;;3.43;100.00;101998.31;10357760;28;20498;-89
2022/11/29 16:17:02;;;;;;;0.00;0.00;;;;;;;3.39;100.00;101999.44;10362941;28;20149;-88
2022/11/29 16:22:22;;;;;;;0.00;0.00;;;;;;;3.47;100.00;102004.28;10361793;28;20081;-88
2022/11/29 16:27:23;;;;;;;0.00;0.00;;;;;;;3.46;100.00;102011.34;10358488;28;20062;-91
2022/11/29 16:32:36;;;;;;;0.00;0.00;;;;;;;3.47;100.00;102013.03;10360241;28;20116;-90
2022/11/29 16:37:43;;;;;;;0.00;0.00;;;;;;;3.47;100.00;102014.81;10356411;28;20502;-90
2022/11/29 16:43:05;;;;;;;0.00;0.00;;;;;;;3.42;100.00;102012.44;10364242;28;20040;-90
2022/11/29 16:48:20;;;;;;;0.00;0.00;;;;;;;3.49;100.00;102015.56;10365716;28;20034;-90
2022/11/29 16:53:33;;;;;;;0.00;0.00;;;;;;;3.44;100.00;102021.09;10363658;28;20033;-88
2022/11/29 16:58:34;;;;;;;0.00;0.00;;;;;;;3.48;100.00;102030.53;10359515;28;20107;-89
2022/11/29 17:03:34;;;;;;;0.00;0.00;;;;;;;3.49;100.00;102034.00;10356731;28;20092;-89
2022/11/29 17:08:35;;;;;;;0.00;0.00;;;;;;;3.45;100.00;102032.50;10368753;28;20184;-89
2022/11/29 17:13:37;;;;;;;0.00;0.00;;;;;;;3.50;100.00;102044.47;10369747;28;20025;-90
2022/11/29 17:18:37;;;;;;;0.00;0.00;;;;;;;3.52;100.00;102047.00;10368353;28;20048;-89
2022/11/29 17:23:37;;;;;;;0.00;0.00;;;;;;;3.52;100.00;102053.16;10367306;28;20129;-89
2022/11/29 17:28:43;;;;;;;0.00;0.00;;;;;;;3.50;100.00;102048.91;10367014;28;20121;-89
2022/11/29 17:33:43;;;;;;;0.00;0.00;;;;;;;3.54;100.00;102053.06;10366313;28;20034;-90
2022/11/29 17:38:44;;;;;;;0.10;0.10;;;;;;;3.55;100.00;102060.03;10365270;28;20080;-89
2022/11/29 17:43:45;;;;;;;0.00;0.00;;;;;;;3.54;100.00;102058.31;10364969;28;20037;-90
2022/11/29 17:48:46;;;;;;;0.00;0.00;;;;;;;3.55;100.00;102068.78;10365445;28;20403;-91
2022/11/29 17:53:47;;;;;;;0.00;0.00;;;;;;;3.57;100.00;102069.53;10365741;28;20060;-90
2022/11/29 17:58:52;;;;;;;0.15;0.05;;;;;;;3.53;100.00;102062.75;10364353;28;20146;-90
2022/11/29 18:03:55;;;;;;;0.00;0.00;;;;;;;3.57;100.00;102079.22;10353192;28;20437;-90
2022/11/29 18:08:57;;;;;;;0.00;0.00;;;;;;;3.55;100.00;102079.34;10363607;28;20038;-90
2022/11/29 18:13:59;;;;;;;0.00;0.00;;;;;;;3.57;100.00;102087.13;10362118;28;20104;-91
2022/11/29 18:19:06;;;;;;;0.00;0.00;;;;;;;3.52;100.00;102087.41;10362782;28;20472;-90
2022/11/29 18:24:08;;;;;;;0.10;0.10;;;;;;;3.58;100.00;102100.25;10362845;28;20033;-89
2022/11/29 18:29:08;;;;;;;0.00;0.00;;;;;;;3.59;100.00;102101.09;10363913;28;20026;-89
2022/11/29 18:34:10;;;;;;;0.00;0.00;;;;;;;3.57;100.00;102103.78;10367335;28;20494;-88
2022/11/29 18:39:16;;;;;;;0.00;0.00;;;;;;;3.59;100.00;102103.72;10387198;28;20029;-88
2022/11/29 18:44:19;;;;;;;0.10;0.10;;;;;;;3.59;100.00;102106.34;10369378;28;20030;-88
2022/11/29 18:49:19;;;;;;;0.00;0.00;;;;;;;3.61;100.00;102107.97;10366849;28;20406;-87
2022/11/29 18:54:19;;;;;;;0.00;0.00;;;;;;;3.60;100.00;102114.16;10368383;28;20026;-87
2022/11/29 18:59:21;;;;;;;0.00;0.00;;;;;;;3.60;100.00;102115.94;10365580;28;20033;-88
2022/11/29 19:04:22;;;;;;;0.00;0.00;;;;;;;3.59;100.00;102116.91;10363959;28;20293;-88
2022/11/29 19:09:22;;;;;;;0.00;0.00;;;;;;;3.56;100.00;102114.44;10364348;28;20030;-87
2022/11/29 19:14:22;;;;;;;0.00;0.00;;;;;;;3.55;100.00;102113.59;10365273;28;20030;-87
2022/11/29 19:19:23;;;;;;;0.00;0.00;;;;;;;3.48;100.00;102098.19;10383278;28;20033;-89
2022/11/29 19:24:23;;;;;;;0.00;0.00;;;;;;;3.50;100.00;102112.97;10365451;28;20037;-87
2022/11/29 19:29:23;;;;;;;0.00;0.00;;;;;;;3.49;100.00;102113.03;10381082;28;20630;-87
2022/11/29 19:34:24;;;;;;;0.00;0.00;;;;;;;3.44;100.00;102105.41;10380437;28;20490;-87
2022/11/29 19:39:24;;;;;;;0.00;0.00;;;;;;;3.43;100.00;102113.38;10364142;28;20277;-88
2022/11/29 19:44:24;;;;;;;0.00;0.00;;;;;;;3.44;100.00;102126.47;10362840;28;20171;-88
2022/11/29 19:49:24;;;;;;;0.00;0.00;;;;;;;3.45;100.00;102124.69;10363368;28;20052;-87
2022/11/29 19:54:25;;;;;;;0.00;0.00;;;;;;;3.43;100.00;102130.03;10362176;28;20561;-86
2022/11/29 19:59:25;;;;;;;0.00;0.00;;;;;;;3.40;100.00;102131.06;10380225;28;20759;-87
2022/11/29 20:04:25;;;;;;;0.00;0.00;;;;;;;3.39;100.00;102131.13;10360655;28;20026;-88
2022/11/29 20:09:28;;;;;;;0.00;0.00;;;;;;;3.40;100.00;102141.59;10364367;28;20046;-87
2022/11/29 20:14:28;;;;;;;0.00;0.00;;;;;;;3.41;100.00;102147.72;10370558;28;20115;-87
2022/11/29 20:19:28;;;;;;;0.00;0.00;;;;;;;3.35;100.00;102133.06;10378111;28;20088;-88
2022/11/29 20:24:28;;;;;;;0.00;0.00;;;;;;;3.38;100.00;102143.44;10362216;28;20525;-88
2022/11/29 20:29:31;;;;;;;0.00;0.00;;;;;;;3.37;100.00;102136.50;10379110;28;20054;-87
2022/11/29 20:34:31;;;;;;;0.03;0.03;;;;;;;3.39;100.00;102139.03;10357944;28;20040;-88
2022/11/29 20:39:44;;;;;;;0.00;0.00;;;;;;;3.39;100.00;102144.28;10360302;28;20029;-87
2022/11/29 20:44:52;;;;;;;0.00;0.00;;;;;;;3.38;100.00;102139.97;10361652;28;20537;-87
2022/11/29 20:49:53;;;;;;;0.00;0.00;;;;;;;3.38;100.00;102153.97;10349721;28;20526;-88
2022/11/29 20:54:53;;;;;;;0.00;0.00;;;;;;;3.33;100.00;102147.25;10361754;28;20026;-88
2022/11/29 20:59:54;;;;;;;0.00;0.00;;;;;;;3.34;100.00;102146.31;10362670;28;20033;-88
2022/11/29 21:04:54;;;;;;;0.00;0.00;;;;;;;3.35;100.00;102150.66;10377838;28;20288;-89
2022/11/29 21:09:54;;;;;;;0.00;0.00;;;;;;;3.35;100.00;102150.66;10379954;28;20038;-89
2022/11/29 21:14:55;;;;;;;0.00;0.00;;;;;;;3.35;100.00;102159.41;10379634;28;20490;-88
2022/11/29 21:19:56;;;;;;;0.00;0.00;;;;;;;3.38;100.00;102156.63;10361520;28;20275;-88
2022/11/29 21:25:18;;;;;;;0.00;0.00;;;;;;;3.39;100.00;102153.03;10381181;28;20026;-87
2022/11/29 21:30:21;;;;;;;0.00;0.00;;;;;;;3.40;100.00;102161.78;10362908;28;20037;-87
2022/11/29 21:35:21;;;;;;;0.00;0.00;;;;;;;3.41;100.00;102160.88;10363478;28;20034;-89
2022/11/29 21:40:23;;;;;;;0.00;0.00;;;;;;;3.37;100.00;102159.31;10380463;28;20032;-88
2022/11/29 21:45:23;;;;;;;0.00;0.00;;;;;;;3.42;100.00;102169.63;10361106;28;20088;-87
2022/11/29 21:50:23;;;;;;;0.00;0.00;;;;;;;3.42;100.00;102186.28;10364102;28;20036;-87
2022/11/29 21:55:24;;;;;;;0.00;0.00;;;;;;;3.40;100.00;102181.09;10366869;28;20343;-88
2022/11/29 22:00:24;;;;;;;0.00;0.00;;;;;;;3.40;100.00;102183.75;10368206;28;20057;-89
2022/11/29 22:05:24;;;;;;;0.00;0.00;;;;;;;3.39;100.00;102187.28;10362731;28;20077;-88
2022/11/29 22:10:26;;;;;;;0.00;0.00;;;;;;;3.39;100.00;102186.44;10368656;28;20065;-88
2022/11/29 22:15:27;;;;;;;0.00;0.00;;;;;;;3.41;100.00;102192.50;10370966;28;20265;-88
2022/11/29 22:20:28;;;;;;;0.00;0.00;;;;;;;3.39;100.00;102196.97;10371838;28;20038;-88
2022/11/29 22:25:28;;;;;;;0.00;0.00;;;;;;;3.38;100.00;102185.59;10363220;28;20045;-88
2022/11/29 22:30:28;;;;;;;0.00;0.00;;;;;;;3.37;100.00;102191.81;10363704;28;20090;-88
2022/11/29 22:35:29;;;;;;;0.00;0.00;;;;;;;3.40;100.00;102185.50;10377099;28;20117;-88
2022/11/29 22:40:29;;;;;;;0.00;0.00;;;;;;;3.39;100.00;102186.44;10380753;28;20034;-87
2022/11/29 22:45:41;;;;;;;0.00;0.00;;;;;;;3.39;100.00;102197.81;10363654;28;20044;-93
2022/11/29 22:50:42;;;;;;;0.00;0.00;;;;;;;3.29;100.00;102183.44;10367563;28;20037;-93
2022/11/29 22:55:42;;;;;;;0.00;0.00;;;;;;;3.32;100.00;102188.53;10365767;28;20414;-92
2022/11/29 23:00:45;;;;;;;0.00;0.00;;;;;;;3.29;100.00;102185.22;10364010;28;20065;-93
2022/11/29 23:05:45;;;;;;;0.00;0.00;;;;;;;3.29;100.00;102195.75;10365779;28;20391;-93
2022/11/29 23:10:55;;;;;;;0.00;0.00;;;;;;;3.30;100.00;102200.09;10366253;28;20033;-93
2022/11/29 23:15:56;;;;;;;0.00;0.00;;;;;;;3.29;100.00;102203.66;10368625;28;20301;-93
2022/11/29 23:21:01;;;;;;;0.00;0.00;;;;;;;3.25;100.00;102196.81;10364207;28;20030;-93
2022/11/29 23:26:04;;;;;;;0.00;0.00;;;;;;;3.23;100.00;102191.66;10373518;28;20285;-93
2022/11/29 23:31:04;;;;;;;0.00;0.00;;;;;;;3.32;100.00;102204.34;10375822;28;20057;-94
2022/11/29 23:36:06;;;;;;;0.00;0.00;;;;;;;3.20;100.00;102178.66;10371038;28;20518;-93
2022/11/29 23:41:08;;;;;;;0.00;0.00;;;;;;;3.24;100.00;102181.97;10372062;28;20799;-92
2022/11/29 23:46:15;;;;;;;0.00;0.00;;;;;;;3.28;100.00;102194.03;10364801;28;20074;-94
2022/11/29 23:51:16;;;;;;;0.00;0.00;;;;;;;3.22;100.00;102181.19;10374684;28;20038;-93
2022/11/29 23:56:17;;;;;;;0.00;0.00;;;;;;;3.23;100.00;102190.78;10376087;28;20452;-94